Terminal Aerodrome Forecast
Issued by NWS

Current Version | Previous Version | Graphics & Text | Print | Product List | Glossary On
Versions: 1 2 3 4 5 6 7 8 9 10 11 12 13 14 15 16 17
000
FTUS41 KPBZ 170308 AAB
TAFMGW
TAF AMD
KMGW 170308Z 1703/1724 29005KT 3SM -SN OVC025
      TEMPO 1703/1705 1SM -SN BKN015
     FM170500 30005KT P6SM BKN035
     FM170700 29005KT P6SM BKN025
     FM172000 26005KT P6SM SCT035=

USA.gov is the U.S. government's official web portal to all federal, state and local government web resources and services.